NOZ2274 LOWS-LJLJ
Flight info
| Callsign | NOZ2274 |
|---|---|
| Flight time | 0h 26m |
| Altitude | 17000 |
| Route | VERDA DCT LUMUS LUMUS4L |
| Aircraft | B738/M-SDE2E3FGHIRWXY/LB1 |
Departure
| Time | 2026-04-26 18:16 |
|---|---|
| Airport | Salzburg Airport (LOWS) |
Arrival
| Time | 2026-04-26 18:43 |
|---|---|
| Airport | Ljubljana Jože Pučnik Airport (LJLJ) |
| Time | Latitude | Longitude | Altitude | Speed | Heading |
|---|---|---|---|---|---|
| 2026-04-26 17:47 | 47.79093 | 12.99969 | 1421 ft | 0 kts | 280° |
| 2026-04-26 18:05 | 47.79086 | 13.00016 | 1421 ft | 3 kts | 282° |
| 2026-04-26 18:05 | 47.79082 | 13.00042 | 1421 ft | 3 kts | 292° |
| 2026-04-26 18:05 | 47.79072 | 13.00069 | 1421 ft | 3 kts | 313° |
| 2026-04-26 18:05 | 47.79056 | 13.00089 | 1421 ft | 3 kts | 334° |
| 2026-04-26 18:06 | 47.79050 | 13.00093 | 1421 ft | 0 kts | 337° |
| 2026-04-26 18:08 | 47.79054 | 13.00091 | 1421 ft | 2 kts | 337° |
| 2026-04-26 18:09 | 47.79078 | 13.00075 | 1421 ft | 5 kts | 336° |
| 2026-04-26 18:09 | 47.79109 | 13.00056 | 1421 ft | 5 kts | 336° |
| 2026-04-26 18:09 | 47.79139 | 13.00036 | 1421 ft | 5 kts | 336° |
| 2026-04-26 18:09 | 47.79168 | 13.00018 | 1421 ft | 5 kts | 337° |
| 2026-04-26 18:10 | 47.79197 | 13.00000 | 1421 ft | 4 kts | 337° |
| 2026-04-26 18:10 | 47.79225 | 12.99982 | 1421 ft | 4 kts | 337° |
| 2026-04-26 18:10 | 47.79253 | 12.99965 | 1421 ft | 4 kts | 337° |
| 2026-04-26 18:10 | 47.79280 | 12.99950 | 1421 ft | 4 kts | 344° |
| 2026-04-26 18:11 | 47.79308 | 12.99949 | 1421 ft | 4 kts | 12° |
| 2026-04-26 18:11 | 47.79330 | 12.99973 | 1421 ft | 4 kts | 55° |
| 2026-04-26 18:11 | 47.79342 | 13.00010 | 1421 ft | 4 kts | 65° |
| 2026-04-26 18:11 | 47.79351 | 13.00041 | 1421 ft | 0 kts | 66° |
| 2026-04-26 18:12 | 47.79357 | 13.00057 | 1421 ft | 7 kts | 59° |
| 2026-04-26 18:12 | 47.79430 | 13.00066 | 1421 ft | 15 kts | 339° |
| 2026-04-26 18:13 | 47.79530 | 13.00002 | 1422 ft | 15 kts | 337° |
| 2026-04-26 18:13 | 47.79627 | 12.99944 | 1421 ft | 15 kts | 339° |
| 2026-04-26 18:13 | 47.79720 | 12.99886 | 1421 ft | 14 kts | 335° |
| 2026-04-26 18:13 | 47.79778 | 12.99847 | 1421 ft | 14 kts | 336° |
| 2026-04-26 18:14 | 47.79932 | 12.99750 | 1420 ft | 25 kts | 337° |
| 2026-04-26 18:14 | 47.80086 | 12.99653 | 1421 ft | 23 kts | 338° |
| 2026-04-26 18:14 | 47.80200 | 12.99592 | 1422 ft | 14 kts | 356° |
| 2026-04-26 18:14 | 47.80270 | 12.99663 | 1423 ft | 12 kts | 67° |
| 2026-04-26 18:15 | 47.80293 | 12.99758 | 1420 ft | 5 kts | 77° |
| 2026-04-26 18:15 | 47.80270 | 12.99799 | 1419 ft | 6 kts | 150° |
| 2026-04-26 18:15 | 47.80224 | 12.99833 | 1419 ft | 23 kts | 155° |
| 2026-04-26 18:15 | 47.79843 | 13.00076 | 1422 ft | 95 kts | 157° |
| 2026-04-26 18:16 | 47.79036 | 13.00588 | 1418 ft | 154 kts | 155° |
| 2026-04-26 18:16 | 47.77027 | 13.02107 | 2577 ft | 164 kts | 137° |
| 2026-04-26 18:16 | 47.76061 | 13.03238 | 3135 ft | 195 kts | 142° |
| 2026-04-26 18:17 | 47.74864 | 13.04486 | 3592 ft | 219 kts | 144° |
| 2026-04-26 18:17 | 47.73589 | 13.05770 | 4416 ft | 223 kts | 145° |
| 2026-04-26 18:17 | 47.72301 | 13.07048 | 5444 ft | 222 kts | 147° |
| 2026-04-26 18:17 | 47.70970 | 13.08310 | 6248 ft | 232 kts | 152° |
| 2026-04-26 18:18 | 47.69507 | 13.09476 | 6876 ft | 251 kts | 154° |
| 2026-04-26 18:18 | 47.67852 | 13.10726 | 7304 ft | 275 kts | 155° |
| 2026-04-26 18:18 | 47.66102 | 13.11964 | 8179 ft | 282 kts | 156° |
| 2026-04-26 18:18 | 47.64308 | 13.13232 | 9125 ft | 287 kts | 157° |
| 2026-04-26 18:19 | 47.62491 | 13.14525 | 10107 ft | 291 kts | 157° |
| 2026-04-26 18:19 | 47.60740 | 13.16164 | 10729 ft | 312 kts | 137° |
| 2026-04-26 18:19 | 47.59413 | 13.18854 | 10962 ft | 342 kts | 123° |
| 2026-04-26 18:19 | 47.58130 | 13.21987 | 11267 ft | 366 kts | 123° |
| 2026-04-26 18:20 | 47.56780 | 13.25232 | 11994 ft | 373 kts | 123° |
| 2026-04-26 18:20 | 47.55387 | 13.28495 | 12915 ft | 377 kts | 123° |
| 2026-04-26 18:20 | 47.53944 | 13.31790 | 13687 ft | 383 kts | 127° |
| 2026-04-26 18:20 | 47.52773 | 13.33756 | 14135 ft | 386 kts | 141° |
| 2026-04-26 18:21 | 47.49757 | 13.36614 | 15221 ft | 386 kts | 151° |
| 2026-04-26 18:21 | 47.47429 | 13.38642 | 15999 ft | 389 kts | 151° |
| 2026-04-26 18:21 | 47.45083 | 13.40681 | 16731 ft | 394 kts | 151° |
| 2026-04-26 18:21 | 47.42709 | 13.42752 | 17483 ft | 398 kts | 151° |
| 2026-04-26 18:22 | 47.40311 | 13.44854 | 18210 ft | 402 kts | 151° |
| 2026-04-26 18:22 | 47.37895 | 13.46980 | 18871 ft | 406 kts | 151° |
| 2026-04-26 18:22 | 47.35461 | 13.49128 | 19494 ft | 410 kts | 151° |
| 2026-04-26 18:22 | 47.33004 | 13.51297 | 20116 ft | 413 kts | 151° |
| 2026-04-26 18:23 | 47.30525 | 13.53486 | 20768 ft | 416 kts | 151° |
| 2026-04-26 18:23 | 47.28059 | 13.55661 | 21140 ft | 420 kts | 151° |
| 2026-04-26 18:23 | 47.25515 | 13.57902 | 21178 ft | 433 kts | 151° |
| 2026-04-26 18:23 | 47.22905 | 13.60196 | 21152 ft | 440 kts | 151° |
| 2026-04-26 18:24 | 47.20281 | 13.62504 | 21162 ft | 439 kts | 151° |
| 2026-04-26 18:24 | 47.17658 | 13.64810 | 21161 ft | 439 kts | 151° |
| 2026-04-26 18:24 | 47.15026 | 13.67121 | 21148 ft | 440 kts | 151° |
| 2026-04-26 18:24 | 47.12396 | 13.69426 | 21143 ft | 440 kts | 151° |
| 2026-04-26 18:25 | 47.09749 | 13.71742 | 21144 ft | 441 kts | 151° |
| 2026-04-26 18:25 | 47.07112 | 13.74047 | 21146 ft | 440 kts | 151° |
| 2026-04-26 18:25 | 47.04478 | 13.76346 | 21128 ft | 439 kts | 151° |
| 2026-04-26 18:25 | 47.01856 | 13.78633 | 21126 ft | 439 kts | 151° |
| 2026-04-26 18:26 | 46.99262 | 13.80892 | 21140 ft | 438 kts | 151° |
| 2026-04-26 18:26 | 46.96642 | 13.83173 | 21150 ft | 439 kts | 151° |
| 2026-04-26 18:26 | 46.94017 | 13.85453 | 21094 ft | 437 kts | 151° |
| 2026-04-26 18:26 | 46.91437 | 13.87694 | 20811 ft | 425 kts | 151° |
| 2026-04-26 18:27 | 46.88929 | 13.89871 | 20572 ft | 415 kts | 151° |
| 2026-04-26 18:27 | 46.86457 | 13.92012 | 20309 ft | 411 kts | 151° |
| 2026-04-26 18:27 | 46.83992 | 13.94144 | 20067 ft | 411 kts | 151° |
| 2026-04-26 18:27 | 46.81541 | 13.96260 | 19652 ft | 409 kts | 151° |
| 2026-04-26 18:28 | 46.79103 | 13.98365 | 19119 ft | 405 kts | 151° |
| 2026-04-26 18:28 | 46.76687 | 14.00448 | 18579 ft | 401 kts | 151° |
| 2026-04-26 18:28 | 46.74290 | 14.02514 | 17983 ft | 397 kts | 151° |
| 2026-04-26 18:28 | 46.71918 | 14.04555 | 17387 ft | 393 kts | 151° |
| 2026-04-26 18:29 | 46.69569 | 14.06575 | 16820 ft | 389 kts | 151° |
| 2026-04-26 18:29 | 46.67253 | 14.08564 | 16286 ft | 385 kts | 151° |
| 2026-04-26 18:29 | 46.64953 | 14.10538 | 15743 ft | 382 kts | 151° |
| 2026-04-26 18:29 | 46.62669 | 14.12497 | 15221 ft | 380 kts | 151° |
| 2026-04-26 18:30 | 46.60400 | 14.14439 | 14702 ft | 377 kts | 151° |
| 2026-04-26 18:30 | 46.58139 | 14.16359 | 14123 ft | 376 kts | 152° |
| 2026-04-26 18:30 | 46.55856 | 14.18169 | 13406 ft | 379 kts | 153° |
| 2026-04-26 18:30 | 46.53536 | 14.19947 | 12874 ft | 375 kts | 153° |
| 2026-04-26 18:31 | 46.51244 | 14.21698 | 12452 ft | 368 kts | 153° |
| 2026-04-26 18:31 | 46.48992 | 14.23431 | 11931 ft | 364 kts | 153° |
| 2026-04-26 18:31 | 46.46746 | 14.25169 | 11194 ft | 367 kts | 153° |
| 2026-04-26 18:31 | 46.44513 | 14.26902 | 10925 ft | 356 kts | 153° |
| 2026-04-26 18:32 | 46.42373 | 14.28562 | 10766 ft | 342 kts | 154° |
| 2026-04-26 18:32 | 46.40286 | 14.30175 | 10475 ft | 333 kts | 154° |
| 2026-04-26 18:32 | 46.38277 | 14.31730 | 10323 ft | 323 kts | 153° |
| 2026-04-26 18:32 | 46.36325 | 14.33240 | 10184 ft | 313 kts | 154° |
| 2026-04-26 18:33 | 46.34429 | 14.34705 | 10049 ft | 304 kts | 153° |
| 2026-04-26 18:33 | 46.32580 | 14.36132 | 9780 ft | 300 kts | 154° |
| 2026-04-26 18:33 | 46.30745 | 14.37546 | 9476 ft | 297 kts | 153° |
| 2026-04-26 18:33 | 46.28932 | 14.38943 | 9178 ft | 294 kts | 154° |
| 2026-04-26 18:34 | 46.27132 | 14.40331 | 8850 ft | 292 kts | 154° |
| 2026-04-26 18:34 | 46.25353 | 14.41704 | 8566 ft | 288 kts | 154° |
| 2026-04-26 18:34 | 46.23597 | 14.43087 | 8252 ft | 286 kts | 149° |
| 2026-04-26 18:34 | 46.22012 | 14.44825 | 7947 ft | 285 kts | 141° |
| 2026-04-26 18:35 | 46.20510 | 14.46684 | 7633 ft | 283 kts | 141° |
| 2026-04-26 18:35 | 46.19013 | 14.48514 | 7321 ft | 281 kts | 141° |
| 2026-04-26 18:35 | 46.17521 | 14.50305 | 7025 ft | 277 kts | 144° |
| 2026-04-26 18:35 | 46.16039 | 14.52042 | 6799 ft | 272 kts | 143° |
| 2026-04-26 18:36 | 46.14577 | 14.53736 | 6561 ft | 265 kts | 144° |
| 2026-04-26 18:36 | 46.13171 | 14.55352 | 6304 ft | 257 kts | 143° |
| 2026-04-26 18:36 | 46.11798 | 14.56929 | 6039 ft | 248 kts | 144° |
| 2026-04-26 18:36 | 46.10480 | 14.58444 | 5816 ft | 234 kts | 144° |
| 2026-04-26 18:37 | 46.09245 | 14.59862 | 5553 ft | 221 kts | 143° |
| 2026-04-26 18:37 | 46.08072 | 14.61208 | 5289 ft | 210 kts | 142° |
| 2026-04-26 18:37 | 46.06956 | 14.62495 | 5042 ft | 203 kts | 140° |
| 2026-04-26 18:37 | 46.06177 | 14.64133 | 4818 ft | 201 kts | 110° |
| 2026-04-26 18:38 | 46.06101 | 14.66157 | 4560 ft | 206 kts | 83° |
| 2026-04-26 18:38 | 46.06703 | 14.68009 | 4324 ft | 207 kts | 54° |
| 2026-04-26 18:38 | 46.07892 | 14.69194 | 4167 ft | 218 kts | 24° |
| 2026-04-26 18:38 | 46.09473 | 14.69271 | 4058 ft | 237 kts | 345° |
| 2026-04-26 18:39 | 46.10818 | 14.67979 | 4023 ft | 228 kts | 316° |
| 2026-04-26 18:39 | 46.11849 | 14.66339 | 4009 ft | 215 kts | 309° |
| 2026-04-26 18:39 | 46.12752 | 14.64604 | 4000 ft | 215 kts | 306° |
| 2026-04-26 18:39 | 46.13614 | 14.62891 | 3800 ft | 209 kts | 307° |
| 2026-04-26 18:40 | 46.14469 | 14.61214 | 3534 ft | 205 kts | 308° |
| 2026-04-26 18:40 | 46.15309 | 14.59568 | 3262 ft | 200 kts | 309° |
| 2026-04-26 18:40 | 46.16094 | 14.58029 | 3020 ft | 187 kts | 310° |
| 2026-04-26 18:40 | 46.16841 | 14.56568 | 2762 ft | 175 kts | 311° |
| 2026-04-26 18:41 | 46.17545 | 14.55192 | 2536 ft | 167 kts | 311° |
| 2026-04-26 18:41 | 46.18229 | 14.53852 | 2317 ft | 166 kts | 311° |
| 2026-04-26 18:41 | 46.18928 | 14.52468 | 2096 ft | 178 kts | 310° |
| 2026-04-26 18:41 | 46.19651 | 14.51043 | 1898 ft | 173 kts | 309° |
| 2026-04-26 18:42 | 46.20356 | 14.49673 | 1674 ft | 167 kts | 309° |
| 2026-04-26 18:42 | 46.21025 | 14.48347 | 1435 ft | 165 kts | 311° |
| 2026-04-26 18:42 | 46.21728 | 14.47018 | 1252 ft | 161 kts | 308° |
| 2026-04-26 18:42 | 46.22324 | 14.45858 | 1252 ft | 109 kts | 307° |
| 2026-04-26 18:43 | 46.22559 | 14.45450 | 1240 ft | 42 kts | 326° |
| 2026-04-26 18:43 | 46.22702 | 14.45351 | 1247 ft | 16 kts | 343° |
| 2026-04-26 18:43 | 46.22800 | 14.45327 | 1250 ft | 10 kts | 349° |
| 2026-04-26 18:43 | 46.22855 | 14.45277 | 1254 ft | 9 kts | 307° |
| 2026-04-26 18:44 | 46.22894 | 14.45201 | 1255 ft | 9 kts | 304° |
| 2026-04-26 18:44 | 46.22936 | 14.45132 | 1263 ft | 10 kts | 328° |
| 2026-04-26 18:44 | 46.22997 | 14.45148 | 1259 ft | 9 kts | 40° |
| 2026-04-26 18:44 | 46.23038 | 14.45192 | 1263 ft | 4 kts | 26° |
| 2026-04-26 18:45 | 46.23067 | 14.45181 | 1262 ft | 5 kts | 321° |
| 2026-04-26 18:45 | 46.23084 | 14.45155 | 1257 ft | 5 kts | 312° |
| 2026-04-26 18:45 | 46.23117 | 14.45145 | 1263 ft | 6 kts | 22° |
| 2026-04-26 18:45 | 46.23147 | 14.45173 | 1265 ft | 4 kts | 36° |
| 2026-04-26 18:46 | 46.23153 | 14.45181 | 1265 ft | 0 kts | 37° |